Weather at San Diego International Airport

Public forecast

Using degrees Fahrenheit for public forecast. Weather courtesy of forecast.io.

Current aviation weather report (METAR) for San Diego International Airport

Retrieved 2022/05/19 06:51 UTC (50 minutes ago):

KSAN 190651Z 19005KT 10SM BKN013 15/12 A2999 RMK AO2 SLP154 T01500117

Aviation forecast (TAF) for San Diego International Airport

Retrieved 2022/05/19 06:22 UTC (1 hour ago):

TAF KSAN 190520Z 1906/2012 19005KT P6SM OVC012 FM191800 19009KT P6SM BKN015 TEMPO 1920/1924 SCT015 FM200300 19005KT P6SM BKN020 FM200800 19008KT P6SM BKN028